Nearby METAR Reports


RPLC - Angeles/Pampanga, Philippines
Distance from station: S 166km
Updated: Mon, 30-Nov-2020 3:00pm PST
Partly cloudy
Partly cloudy
 Wind from NNE
Wind: NNE 15 km/h
Temperature: 31°C
Heat Index: 34°C
Dew Point: 21°C
Humidity: 55%
Barometer: 1010 hPa
Clouds: Partly cloudy
Visibility: 10 km
Cloud details: Few Clouds 610 m
Partly cloudy 9144 m
2020/11/30 07:00 RPLC 300700Z 02008KT 9999 FEW020 SCT300 31/21 Q1010 NOSIG RMK A2983
RPLI - Laoag Intl Airport, Philippines
Distance from station: N 171km
Updated: Mon, 30-Nov-2020 3:00pm PST
Few Clouds
Few Clouds
 Wind from NNE
Wind: NNE 30 km/h
Temperature: 30°C
Heat Index: 31°C
Dew Point: 19°C
Humidity: 52%
Barometer: 1010 hPa
Clouds: Few Clouds
Visibility: 10 km
Cloud details: Few Clouds 549 m
2020/11/30 07:00 RPLI 300700Z 03016KT 9999 FEW018 30/19 Q1010 NOSIG RMK A2983
 
RPLB - Olongapo/Subic, Philippines
Distance from station: S 205km
Updated: Mon, 30-Nov-2020 3:00pm PST
Partly cloudy
Partly cloudy
 Wind from ENE
Wind: ENE 17 km/h
Temperature: 29°C
Heat Index: 32°C
Dew Point: 22°C
Humidity: 66%
Barometer: 1010 hPa
Clouds: Partly cloudy
Visibility: 10 km
Cloud details: Partly cloudy 610 m
2020/11/30 07:00 RPLB 300700Z 07009KT 9999 SCT020 29/22 Q1010 NOSIG RMK A2983
RPLL - Ninoy Aquino Intl Airport, Philippines
Distance from station: SSE 247km
Updated: Mon, 30-Nov-2020 3:00pm PST
Partly cloudy
Partly cloudy
 Wind from NE
Wind: NE 15 km/h
Temperature: 30°C
Heat Index: 33°C
Dew Point: 22°C
Humidity: 62%
Barometer: 1009 hPa
Clouds: Partly cloudy
Visibility: 10 km
Cloud details: Partly cloudy 701 m
Partly cloudy 3048 m
2020/11/30 07:00 RPLL 300700Z 04008KT 010V080 9999 SCT023 SCT100 30/22 Q1009 NOSIG RMK A2980